Time;durP1;ratioP1;P1;durP2;ratioP2;P2;SDS_P1;SDS_P2;PMS_P1;PMS_P2;Temp;Humidity;BMP_temperature;BMP_pressure;BME280_temperature;BME280_humidity;BME280_pressure;Samples;Min_cycle;Max_cycle;Signal;HPM_P1;HPM_P2
2022/07/16 00:01:23;;;;;;;6.10;3.05;;;15.00;99.90;;;;;;5051026;28;20059;-73
2022/07/16 00:03:53;;;;;;;7.97;3.03;;;15.00;99.90;;;;;;5048440;28;20091;-72
2022/07/16 00:06:20;;;;;;;9.48;3.35;;;15.10;99.90;;;;;;5022362;28;20401;-72
2022/07/16 00:08:46;;;;;;;5.32;2.67;;;15.00;99.90;;;;;;5029530;28;20053;-73
2022/07/16 00:11:11;;;;;;;4.32;2.60;;;15.10;99.90;;;;;;5051010;28;20056;-72
2022/07/16 00:13:38;;;;;;;7.75;2.50;;;15.10;99.90;;;;;;5050113;28;20045;-73
2022/07/16 00:16:04;;;;;;;4.15;2.63;;;15.10;99.90;;;;;;5045700;28;20057;-73
2022/07/16 00:21:14;;;;;;;3.78;2.63;;;15.20;99.90;;;;;;5034367;28;20142;-72
2022/07/16 00:23:40;;;;;;;4.57;2.88;;;15.20;99.90;;;;;;5035489;28;20049;-72
2022/07/16 00:26:06;;;;;;;5.20;3.00;;;15.20;99.90;;;;;;5049652;28;20049;-76
2022/07/16 00:28:31;;;;;;;6.32;3.33;;;15.20;99.90;;;;;;5039868;28;20045;-75
2022/07/16 00:30:57;;;;;;;7.32;4.18;;;15.20;99.90;;;;;;5033137;28;20415;-75
2022/07/16 00:33:26;;;;;;;6.50;3.78;;;15.10;99.90;;;;;;5048091;28;20067;-74
2022/07/16 00:35:51;;;;;;;5.97;3.00;;;15.10;99.90;;;;;;5020631;28;20048;-75
2022/07/16 00:38:17;;;;;;;6.07;2.53;;;15.00;99.90;;;;;;5036122;28;20053;-77
2022/07/16 00:40:42;;;;;;;7.15;1.90;;;14.90;99.90;;;;;;5051618;28;20049;-74
2022/07/16 00:43:13;;;;;;;6.72;1.60;;;14.90;99.90;;;;;;5042845;28;20275;-76
2022/07/16 00:45:39;;;;;;;5.93;1.70;;;14.80;99.90;;;;;;5042309;28;20041;-74
2022/07/16 00:48:06;;;;;;;6.00;2.08;;;14.80;99.90;;;;;;5014981;28;20493;-74
2022/07/16 00:50:33;;;;;;;3.25;1.40;;;14.70;99.90;;;;;;5031708;28;20127;-74
2022/07/16 00:53:01;;;;;;;7.78;1.55;;;14.70;99.90;;;;;;5038269;28;20056;-74
2022/07/16 00:55:28;;;;;;;9.25;2.03;;;14.70;99.90;;;;;;5051048;28;20059;-74
2022/07/16 00:57:57;;;;;;;5.93;1.75;;;14.70;99.90;;;;;;5033505;28;20500;-75
2022/07/16 01:00:24;;;;;;;7.15;2.30;;;14.70;99.90;;;;;;5051368;28;20049;-74
2022/07/16 01:02:51;;;;;;;6.97;2.47;;;14.70;99.90;;;;;;5040055;28;20129;-74
2022/07/16 01:05:18;;;;;;;6.28;3.10;;;14.70;99.90;;;;;;5047231;28;20041;-74
2022/07/16 01:07:44;;;;;;;6.72;2.28;;;14.80;99.90;;;;;;5024573;28;20072;-74
2022/07/16 01:10:10;;;;;;;6.65;2.60;;;14.80;99.90;;;;;;5050070;28;20339;-74
2022/07/16 01:12:37;;;;;;;6.25;2.17;;;14.80;99.90;;;;;;5050235;28;20048;-74
2022/07/16 01:15:03;;;;;;;5.20;2.03;;;14.80;99.90;;;;;;5051616;28;20128;-75
2022/07/16 01:17:29;;;;;;;4.78;1.83;;;14.70;99.90;;;;;;5014528;28;20045;-74
2022/07/16 01:19:55;;;;;;;4.13;1.70;;;14.80;99.90;;;;;;5047653;28;20442;-74
2022/07/16 01:22:22;;;;;;;6.40;1.60;;;14.80;99.90;;;;;;5036260;28;20056;-74
2022/07/16 01:24:48;;;;;;;5.93;1.90;;;14.80;99.90;;;;;;5047710;28;20449;-75
2022/07/16 01:27:17;;;;;;;6.93;1.80;;;14.80;99.90;;;;;;5032499;28;20074;-74
2022/07/16 01:29:43;;;;;;;3.67;1.40;;;14.80;99.90;;;;;;5049244;28;20053;-73
2022/07/16 01:32:09;;;;;;;7.20;1.52;;;14.80;99.90;;;;;;5038349;28;20093;-74
2022/07/16 01:34:36;;;;;;;7.72;1.92;;;14.80;99.90;;;;;;5035944;28;20063;-75
2022/07/16 01:37:04;;;;;;;6.70;1.85;;;14.90;99.90;;;;;;5022789;28;20491;-74
2022/07/16 01:39:32;;;;;;;4.45;1.42;;;14.80;99.90;;;;;;5030504;28;20088;-75
2022/07/16 01:42:00;;;;;;;5.18;1.42;;;14.80;99.90;;;;;;5030289;28;20042;-75
2022/07/16 01:44:27;;;;;;;6.05;1.48;;;14.90;99.90;;;;;;5032365;28;20045;-75
2022/07/16 01:46:54;;;;;;;5.25;1.65;;;14.90;99.90;;;;;;5021202;28;20550;-77
2022/07/16 01:49:21;;;;;;;4.00;1.55;;;14.90;99.90;;;;;;5014977;28;20469;-78
2022/07/16 01:51:46;;;;;;;8.48;1.40;;;14.90;99.90;;;;;;5039903;28;20073;-77
2022/07/16 01:54:12;;;;;;;6.43;1.52;;;14.80;99.90;;;;;;5045388;28;20117;-76
2022/07/16 01:56:38;;;;;;;6.38;1.40;;;14.80;99.90;;;;;;5025279;28;20384;-77
2022/07/16 01:59:04;;;;;;;5.32;1.25;;;14.80;99.90;;;;;;5026513;28;20132;-76
2022/07/16 02:01:30;;;;;;;6.65;1.30;;;14.80;99.90;;;;;;5029047;28;20388;-75
2022/07/16 02:03:55;;;;;;;6.65;1.40;;;14.80;99.90;;;;;;5029093;28;20053;-75
2022/07/16 02:06:21;;;;;;;4.72;1.42;;;14.70;99.90;;;;;;5025826;28;20041;-73
2022/07/16 02:08:47;;;;;;;6.28;1.40;;;14.70;99.90;;;;;;5028127;28;20054;-73
2022/07/16 02:11:13;;;;;;;4.18;1.20;;;14.60;99.90;;;;;;5040250;28;20124;-73
2022/07/16 02:13:38;;;;;;;6.47;1.38;;;14.60;99.90;;;;;;5048849;28;20530;-72
2022/07/16 02:16:04;;;;;;;7.05;1.55;;;14.60;99.90;;;;;;5040602;28;20105;-73
2022/07/16 02:18:30;;;;;;;7.90;1.17;;;14.50;99.90;;;;;;5015282;28;20064;-73
2022/07/16 02:20:56;;;;;;;4.40;1.30;;;14.40;99.90;;;;;;5041185;28;20041;-74
2022/07/16 02:23:23;;;;;;;4.28;1.60;;;14.40;99.90;;;;;;5031925;28;20044;-73
2022/07/16 02:25:48;;;;;;;4.03;1.13;;;14.30;99.90;;;;;;5030004;28;20427;-72
2022/07/16 02:28:14;;;;;;;5.75;1.55;;;14.30;99.90;;;;;;5013278;28;20042;-73
2022/07/16 02:30:42;;;;;;;5.15;1.65;;;14.30;99.90;;;;;;5029805;28;20057;-74
2022/07/16 02:33:10;;;;;;;5.22;1.30;;;14.20;99.90;;;;;;5029684;28;20041;-74
2022/07/16 02:35:37;;;;;;;7.45;1.25;;;14.10;99.90;;;;;;5040532;28;20053;-72
2022/07/16 02:38:03;;;;;;;5.40;1.55;;;14.20;99.90;;;;;;5033699;28;20086;-72
2022/07/16 02:40:32;;;;;;;6.43;1.70;;;14.10;99.90;;;;;;5049470;28;20052;-73
2022/07/16 02:42:59;;;;;;;4.47;1.45;;;14.00;99.90;;;;;;5041942;28;20045;-72
2022/07/16 02:45:25;;;;;;;7.00;2.00;;;14.00;99.90;;;;;;5043699;28;20158;-73
2022/07/16 02:47:51;;;;;;;4.07;1.80;;;14.00;99.90;;;;;;5018418;28;20071;-72
2022/07/16 02:50:16;;;;;;;5.35;1.50;;;14.00;99.90;;;;;;5049431;28;20049;-71
2022/07/16 02:52:42;;;;;;;3.70;1.35;;;13.90;99.90;;;;;;5048491;28;20593;-72
2022/07/16 02:55:08;;;;;;;8.93;1.77;;;13.90;99.90;;;;;;5064974;28;20040;-72
2022/07/16 02:57:34;;;;;;;4.72;1.60;;;13.90;99.90;;;;;;5032924;28;20496;-73
2022/07/16 02:59:59;;;;;;;2.83;1.55;;;13.90;99.90;;;;;;5049733;28;20077;-73
2022/07/16 03:02:25;;;;;;;6.82;2.00;;;13.80;99.90;;;;;;5047160;28;20052;-72
2022/07/16 03:04:51;;;;;;;5.35;1.98;;;13.90;99.90;;;;;;5048114;28;20055;-72
2022/07/16 03:07:17;;;;;;;6.47;1.90;;;13.80;99.90;;;;;;5027900;28;20064;-71
2022/07/16 03:09:42;;;;;;;6.45;1.73;;;13.80;99.90;;;;;;5028873;28;20416;-72
2022/07/16 03:12:08;;;;;;;6.13;1.98;;;13.80;99.90;;;;;;5047609;28;20041;-71
2022/07/16 03:14:34;;;;;;;5.93;1.88;;;13.80;99.90;;;;;;5051600;28;20044;-72
2022/07/16 03:16:59;;;;;;;6.65;2.22;;;13.70;99.90;;;;;;5015390;28;20429;-73
2022/07/16 03:19:25;;;;;;;5.88;2.20;;;13.70;99.90;;;;;;5027944;28;20068;-72
2022/07/16 03:21:51;;;;;;;4.00;2.30;;;13.70;99.90;;;;;;5030910;28;20037;-71
2022/07/16 03:24:16;;;;;;;6.10;2.08;;;13.60;99.90;;;;;;5028400;28;20404;-72
2022/07/16 03:26:42;;;;;;;5.95;2.10;;;13.60;99.90;;;;;;5021743;28;20403;-73
2022/07/16 03:29:08;;;;;;;6.28;2.38;;;13.50;99.90;;;;;;5047575;28;20047;-72
2022/07/16 03:31:33;;;;;;;4.82;2.22;;;13.50;99.90;;;;;;5029411;28;20382;-72
2022/07/16 03:33:59;;;;;;;5.32;1.95;;;13.50;99.90;;;;;;5029080;28;20053;-73
2022/07/16 03:36:26;;;;;;;9.27;2.60;;;13.50;99.90;;;;;;5016942;28;20462;-71
2022/07/16 03:39:07;;;;;;;10.45;2.10;;;13.50;99.90;;;;;;5038923;28;20076;-72
2022/07/16 03:41:34;;;;;;;5.07;2.30;;;13.50;99.90;;;;;;5047980;28;20079;-72
2022/07/16 03:44:02;;;;;;;5.43;2.85;;;13.50;99.90;;;;;;5035257;28;20041;-73
2022/07/16 03:46:28;;;;;;;11.00;2.50;;;13.50;99.90;;;;;;5030490;28;20129;-72
2022/07/16 03:48:55;;;;;;;5.85;2.17;;;13.50;99.90;;;;;;5041817;28;20056;-72
2022/07/16 03:51:21;;;;;;;5.68;2.00;;;13.50;99.90;;;;;;5030828;28;20050;-72
2022/07/16 03:53:47;;;;;;;8.25;2.33;;;13.50;99.90;;;;;;5045541;28;20058;-72
2022/07/16 03:56:13;;;;;;;6.72;2.53;;;13.50;99.90;;;;;;5042479;28;20068;-72
2022/07/16 03:58:39;;;;;;;7.50;2.13;;;13.50;99.90;;;;;;5045375;28;20516;-72
2022/07/16 04:01:05;;;;;;;3.70;1.95;;;13.50;99.90;;;;;;5051167;28;20045;-75
2022/07/16 04:03:32;;;;;;;9.10;2.15;;;13.50;99.90;;;;;;5051525;28;20426;-74
2022/07/16 04:05:58;;;;;;;4.47;1.80;;;13.50;99.90;;;;;;5052389;28;20076;-74
2022/07/16 04:08:23;;;;;;;5.75;2.17;;;13.60;99.90;;;;;;5035675;28;20072;-75
2022/07/16 04:10:49;;;;;;;8.23;1.80;;;13.60;99.90;;;;;;5052209;28;20061;-74
2022/07/16 04:16:56;;;;;;;4.45;1.50;;;13.60;99.90;;;;;;5026475;28;20040;-75
2022/07/16 04:19:22;;;;;;;6.45;1.25;;;13.70;99.90;;;;;;5041341;28;20049;-75
2022/07/16 04:21:48;;;;;;;5.22;1.58;;;13.60;99.90;;;;;;5044259;28;20037;-74
2022/07/16 04:24:13;;;;;;;7.85;1.45;;;13.70;99.90;;;;;;5038534;28;20045;-74
2022/07/16 04:26:39;;;;;;;5.85;1.40;;;13.70;99.90;;;;;;5016652;28;20582;-75
2022/07/16 04:29:04;;;;;;;5.40;1.48;;;13.70;99.90;;;;;;5042019;28;20053;-76
2022/07/16 04:31:30;;;;;;;6.63;1.67;;;13.70;99.90;;;;;;5032788;28;20576;-74
2022/07/16 04:33:56;;;;;;;7.00;1.70;;;13.80;99.90;;;;;;5044234;28;20128;-75
2022/07/16 04:36:21;;;;;;;4.97;1.15;;;13.80;99.90;;;;;;5031280;28;20405;-74
2022/07/16 04:38:47;;;;;;;10.73;1.60;;;13.90;99.90;;;;;;5028473;28;20102;-74
2022/07/16 04:41:13;;;;;;;7.10;1.30;;;13.90;99.90;;;;;;5040913;28;20033;-73
2022/07/16 04:43:39;;;;;;;7.25;1.63;;;13.90;99.90;;;;;;5047837;28;20735;-74
2022/07/16 04:46:05;;;;;;;4.40;1.35;;;14.00;99.90;;;;;;5043355;28;20102;-73
2022/07/16 04:48:31;;;;;;;8.88;1.45;;;14.10;99.90;;;;;;5021519;28;20123;-75
2022/07/16 04:50:56;;;;;;;8.90;1.40;;;14.10;99.90;;;;;;5050206;28;20037;-75
2022/07/16 04:53:22;;;;;;;5.28;1.10;;;14.00;99.90;;;;;;5049238;28;20099;-74
2022/07/16 04:55:47;;;;;;;5.72;1.27;;;14.10;99.90;;;;;;5039370;28;20056;-76
2022/07/16 04:58:14;;;;;;;5.40;0.93;;;14.10;99.90;;;;;;5024027;28;20048;-75
2022/07/16 05:00:40;;;;;;;4.05;1.10;;;14.20;99.90;;;;;;5039916;28;20668;-75
2022/07/16 05:03:07;;;;;;;7.30;1.10;;;14.10;99.90;;;;;;5040457;28;20048;-75
2022/07/16 05:05:37;;;;;;;7.70;1.15;;;14.20;99.90;;;;;;5042956;28;20484;-77
2022/07/16 05:08:08;;;;;;;4.32;1.20;;;14.20;99.90;;;;;;5023953;28;20492;-75
2022/07/16 05:10:35;;;;;;;5.80;1.08;;;14.20;99.90;;;;;;5041526;28;20267;-76
2022/07/16 05:13:00;;;;;;;5.10;0.90;;;14.20;99.90;;;;;;5038776;28;20544;-74
2022/07/16 05:15:27;;;;;;;5.07;0.75;;;14.30;99.90;;;;;;5041664;28;20248;-77
2022/07/16 05:17:52;;;;;;;4.68;1.05;;;14.40;99.90;;;;;;5024401;28;20170;-76
2022/07/16 05:20:18;;;;;;;4.90;1.00;;;14.60;99.90;;;;;;5050689;28;20040;-76
2022/07/16 05:22:44;;;;;;;8.48;1.20;;;14.80;99.90;;;;;;5044444;28;20048;-76
2022/07/16 05:25:11;;;;;;;5.90;1.00;;;15.00;99.90;;;;;;5046062;28;20049;-76
2022/07/16 05:27:37;;;;;;;4.65;0.90;;;15.10;99.90;;;;;;5032144;28;20033;-75
2022/07/16 05:30:04;;;;;;;6.38;0.80;;;15.40;99.90;;;;;;5047404;28;20423;-77
2022/07/16 05:32:29;;;;;;;5.80;0.90;;;15.60;99.90;;;;;;5047651;28;20048;-76
2022/07/16 05:34:55;;;;;;;4.05;1.00;;;15.80;99.90;;;;;;5025115;28;20061;-75
2022/07/16 05:37:21;;;;;;;6.28;0.82;;;16.10;99.90;;;;;;5002604;28;20120;-76
2022/07/16 05:39:46;;;;;;;4.47;0.70;;;16.20;99.90;;;;;;5048463;28;20129;-74
2022/07/16 05:42:12;;;;;;;5.50;1.15;;;16.50;99.90;;;;;;5035366;28;20040;-75
2022/07/16 05:44:38;;;;;;;4.75;0.80;;;16.60;99.90;;;;;;5046495;28;20116;-78
2022/07/16 05:47:04;;;;;;;3.38;0.63;;;16.70;99.90;;;;;;5031917;28;20499;-75
2022/07/16 05:49:30;;;;;;;5.13;0.80;;;16.90;99.90;;;;;;5043495;28;20126;-75
2022/07/16 05:51:56;;;;;;;5.28;1.02;;;17.10;99.90;;;;;;5047798;28;20510;-75
2022/07/16 05:54:22;;;;;;;8.10;1.10;;;17.30;99.90;;;;;;5045968;28;20140;-77
2022/07/16 05:56:48;;;;;;;6.68;0.80;;;17.40;99.90;;;;;;5021277;28;20052;-77
2022/07/16 05:59:15;;;;;;;6.25;1.05;;;17.50;99.90;;;;;;5047625;28;20500;-76
2022/07/16 06:01:40;;;;;;;6.93;1.00;;;17.70;99.90;;;;;;5037258;28;20580;-74
2022/07/16 06:04:06;;;;;;;2.72;0.80;;;17.70;99.90;;;;;;5046910;28;20136;-73
2022/07/16 06:06:32;;;;;;;6.32;0.82;;;17.70;99.90;;;;;;5035166;28;20049;-75
2022/07/16 06:08:58;;;;;;;3.50;0.60;;;17.60;99.90;;;;;;5039512;28;20400;-73
2022/07/16 06:11:23;;;;;;;5.05;0.95;;;17.10;99.90;;;;;;5034212;28;20041;-74
2022/07/16 06:13:49;;;;;;;3.88;0.70;;;17.30;99.90;;;;;;5042318;28;20048;-74
2022/07/16 06:16:15;;;;;;;4.18;0.55;;;17.30;99.90;;;;;;5032330;28;20045;-74
2022/07/16 06:18:41;;;;;;;5.53;0.55;;;17.20;99.90;;;;;;5040152;28;20045;-75
2022/07/16 06:21:07;;;;;;;3.53;0.60;;;17.40;99.90;;;;;;5047607;28;20072;-74
2022/07/16 06:23:33;;;;;;;4.10;0.52;;;17.30;99.90;;;;;;5045939;28;20481;-75
2022/07/16 06:25:58;;;;;;;4.82;0.50;;;17.40;99.90;;;;;;5047648;28;20262;-72
2022/07/16 06:28:24;;;;;;;4.30;0.70;;;17.40;99.90;;;;;;5026547;28;20043;-73
2022/07/16 06:30:50;;;;;;;5.07;1.05;;;17.30;99.90;;;;;;5035031;28;20059;-73
2022/07/16 06:33:16;;;;;;;7.18;0.80;;;17.20;99.90;;;;;;5047805;28;20079;-73
2022/07/16 06:35:41;;;;;;;5.82;0.50;;;17.30;99.90;;;;;;5037247;28;20503;-74
2022/07/16 06:38:07;;;;;;;5.35;0.43;;;17.40;99.90;;;;;;5031386;28;20098;-72
2022/07/16 06:40:32;;;;;;;4.45;0.50;;;17.30;99.90;;;;;;5042899;28;20051;-74
2022/07/16 06:42:58;;;;;;;4.45;0.63;;;17.50;99.90;;;;;;5044902;28;20041;-74
2022/07/16 06:45:24;;;;;;;4.10;0.70;;;17.40;99.90;;;;;;5042219;28;20043;-74
2022/07/16 06:47:49;;;;;;;4.93;0.93;;;17.40;99.90;;;;;;5028182;28;20041;-73
2022/07/16 06:50:15;;;;;;;3.75;0.70;;;17.20;99.90;;;;;;5046108;28;20055;-75
2022/07/16 06:52:41;;;;;;;5.32;0.75;;;17.30;99.90;;;;;;5046137;28;20499;-74
2022/07/16 06:55:07;;;;;;;5.00;0.65;;;17.20;99.90;;;;;;5043173;28;20048;-77
2022/07/16 06:57:33;;;;;;;5.45;0.88;;;17.30;99.90;;;;;;5031659;28;20572;-73
2022/07/16 06:59:59;;;;;;;5.25;0.88;;;17.10;99.90;;;;;;5043027;28;20087;-75
2022/07/16 07:02:25;;;;;;;6.55;1.17;;;16.90;99.90;;;;;;5034086;28;20045;-74
2022/07/16 07:04:50;;;;;;;3.83;0.80;;;16.60;99.90;;;;;;5048938;28;20053;-74
2022/07/16 07:07:16;;;;;;;6.55;0.88;;;16.40;99.90;;;;;;5031453;28;20053;-73
2022/07/16 07:09:42;;;;;;;4.60;0.70;;;16.30;99.90;;;;;;5041417;28;20546;-72
2022/07/16 07:12:08;;;;;;;4.18;0.68;;;16.40;99.90;;;;;;5037562;28;20052;-71
2022/07/16 07:14:34;;;;;;;4.05;0.73;;;16.40;99.90;;;;;;5043747;28;20186;-72
2022/07/16 07:16:59;;;;;;;4.05;0.55;;;16.40;99.90;;;;;;5032996;28;20420;-75
2022/07/16 07:19:25;;;;;;;5.13;0.70;;;16.50;99.90;;;;;;5039827;28;20153;-73
2022/07/16 07:21:51;;;;;;;4.93;0.77;;;16.60;99.90;;;;;;5043863;28;20052;-73
2022/07/16 07:24:16;;;;;;;6.53;1.00;;;16.60;99.90;;;;;;5047227;28;20068;-73
2022/07/16 07:26:42;;;;;;;3.10;0.50;;;16.60;99.90;;;;;;5038858;28;20041;-73
2022/07/16 07:29:08;;;;;;;6.13;0.70;;;16.60;99.90;;;;;;5045461;28;20106;-73
2022/07/16 07:31:33;;;;;;;3.78;0.50;;;16.70;99.90;;;;;;5052891;28;20126;-75
2022/07/16 07:33:59;;;;;;;5.15;0.60;;;16.90;99.90;;;;;;5045299;28;20109;-74
2022/07/16 07:36:25;;;;;;;4.50;0.50;;;17.20;99.90;;;;;;5041119;28;20040;-74
2022/07/16 07:38:50;;;;;;;4.47;0.82;;;17.10;99.90;;;;;;5040526;28;20532;-70
2022/07/16 07:41:16;;;;;;;5.00;0.68;;;17.00;99.90;;;;;;5056772;28;20836;-74
2022/07/16 07:43:42;;;;;;;5.15;0.65;;;16.90;99.90;;;;;;5045505;28;20041;-71
2022/07/16 07:46:08;;;;;;;6.93;0.88;;;16.80;99.90;;;;;;5046742;28;20051;-73
2022/07/16 07:48:34;;;;;;;4.95;0.70;;;16.90;99.90;;;;;;5037119;28;20052;-73
2022/07/16 07:51:00;;;;;;;3.63;0.60;;;17.00;99.90;;;;;;5051019;28;20077;-71
2022/07/16 07:53:26;;;;;;;4.43;0.77;;;16.80;99.90;;;;;;5048983;28;20053;-71
2022/07/16 07:55:51;;;;;;;6.53;0.82;;;16.80;99.90;;;;;;5048099;28;20086;-71
2022/07/16 07:58:17;;;;;;;4.78;0.73;;;16.80;99.90;;;;;;5035874;28;20191;-73
2022/07/16 08:00:43;;;;;;;3.90;0.60;;;16.90;99.90;;;;;;5051367;28;20040;-73
2022/07/16 08:03:09;;;;;;;3.30;0.90;;;17.00;99.90;;;;;;5048504;28;20040;-72
2022/07/16 08:05:35;;;;;;;4.88;0.82;;;17.00;99.90;;;;;;5052088;28;20129;-74
2022/07/16 08:08:01;;;;;;;4.07;0.60;;;17.00;99.90;;;;;;5033252;28;20112;-74
2022/07/16 08:10:27;;;;;;;6.15;0.80;;;17.20;99.90;;;;;;5036419;28;20544;-76
2022/07/16 08:12:52;;;;;;;6.45;1.00;;;17.00;99.90;;;;;;5043498;28;20041;-73
2022/07/16 08:15:18;;;;;;;3.63;0.88;;;17.00;99.90;;;;;;5041803;28;20038;-72
2022/07/16 08:17:44;;;;;;;8.30;0.98;;;16.90;99.90;;;;;;5030398;28;20037;-74
2022/07/16 08:20:11;;;;;;;4.75;0.82;;;16.70;99.90;;;;;;5046037;28;20107;-74
2022/07/16 08:22:37;;;;;;;6.07;0.90;;;16.60;99.90;;;;;;5048154;28;20571;-75
2022/07/16 08:27:48;;;;;;;4.40;0.93;;;16.70;99.90;;;;;;5026036;28;20040;-74
2022/07/16 08:30:14;;;;;;;6.18;0.80;;;17.00;99.90;;;;;;5045911;28;20045;-74
2022/07/16 08:32:40;;;;;;;4.45;0.90;;;17.10;99.90;;;;;;5042303;28;20041;-75
2022/07/16 08:35:06;;;;;;;4.18;0.75;;;17.10;99.90;;;;;;5045371;28;20045;-72
2022/07/16 08:37:37;;;;;;;3.55;0.70;;;17.10;99.90;;;;;;5040473;28;20556;-74
2022/07/16 08:40:05;;;;;;;2.85;0.70;;;17.10;99.90;;;;;;5050408;28;20041;-74
2022/07/16 08:42:33;;;;;;;2.35;0.63;;;17.20;99.90;;;;;;5044019;28;20061;-75
2022/07/16 08:44:59;;;;;;;4.60;0.70;;;17.20;99.90;;;;;;5044741;28;20041;-71
2022/07/16 08:47:27;;;;;;;6.05;0.52;;;17.30;99.90;;;;;;5028976;28;20053;-73
2022/07/16 08:49:54;;;;;;;3.47;0.50;;;17.50;99.90;;;;;;5050047;28;20037;-76
2022/07/16 08:52:20;;;;;;;5.03;0.75;;;17.40;99.90;;;;;;5045488;28;20118;-76
2022/07/16 08:54:47;;;;;;;3.15;0.68;;;17.40;99.90;;;;;;5049114;28;20056;-74
2022/07/16 08:57:15;;;;;;;6.25;0.80;;;17.40;99.90;;;;;;5026635;28;20062;-73
2022/07/16 08:59:41;;;;;;;5.97;0.90;;;17.50;99.90;;;;;;5046461;28;20051;-74
2022/07/16 09:02:06;;;;;;;5.60;0.73;;;17.40;99.90;;;;;;5042182;28;20056;-78
2022/07/16 09:04:32;;;;;;;4.65;0.63;;;17.60;99.90;;;;;;5039507;28;20034;-74
2022/07/16 09:06:58;;;;;;;5.30;0.75;;;17.30;99.90;;;;;;5025505;28;20057;-75
2022/07/16 09:09:24;;;;;;;3.65;0.80;;;17.30;99.90;;;;;;5042518;28;20048;-76
2022/07/16 09:11:49;;;;;;;5.50;0.80;;;17.20;99.90;;;;;;5037317;28;20056;-74
2022/07/16 09:14:16;;;;;;;5.93;0.80;;;17.40;99.90;;;;;;5043646;28;20102;-75
2022/07/16 09:16:53;;;;;;;3.90;0.57;;;17.40;99.90;;;;;;5027819;28;20491;-73
2022/07/16 09:19:25;;;;;;;3.60;0.70;;;17.20;99.90;;;;;;5048529;28;20048;-76
2022/07/16 09:22:10;;;;;;;5.60;0.73;;;17.10;99.90;;;;;;5042785;28;20617;-73
2022/07/16 09:24:48;;;;;;;5.43;0.57;;;17.30;99.90;;;;;;5044375;28;20041;-74
2022/07/16 09:27:24;;;;;;;4.75;0.80;;;17.30;99.90;;;;;;5021936;28;20049;-72
2022/07/16 09:29:58;;;;;;;4.88;0.70;;;17.60;99.90;;;;;;5044367;28;20099;-71
2022/07/16 09:32:29;;;;;;;7.72;0.85;;;17.70;99.90;;;;;;5038545;28;20128;-72
2022/07/16 09:35:05;;;;;;;6.50;0.77;;;17.70;99.90;;;;;;5040823;28;20123;-72
2022/07/16 09:37:55;;;;;;;4.40;0.80;;;17.40;99.90;;;;;;5018509;28;20048;-73
2022/07/16 09:40:35;;;;;;;8.32;1.00;;;17.50;99.90;;;;;;5043911;28;20049;-73
2022/07/16 09:43:03;;;;;;;4.53;0.60;;;17.60;99.90;;;;;;5031334;28;20056;-72
2022/07/16 09:45:29;;;;;;;5.20;0.57;;;17.80;99.90;;;;;;5037488;28;20042;-73
2022/07/16 09:47:55;;;;;;;8.65;0.80;;;17.70;99.90;;;;;;5020306;28;20081;-72
2022/07/16 09:50:21;;;;;;;6.10;0.95;;;17.80;99.90;;;;;;5047651;28;20078;-74
2022/07/16 09:52:47;;;;;;;6.32;0.93;;;17.60;99.90;;;;;;5039004;28;20042;-72
2022/07/16 09:55:13;;;;;;;3.42;0.65;;;17.50;99.90;;;;;;5039284;28;20049;-72
2022/07/16 09:57:41;;;;;;;4.38;0.88;;;17.50;99.90;;;;;;5024332;28;20049;-72
2022/07/16 10:00:07;;;;;;;3.60;0.50;;;17.30;99.90;;;;;;5044138;28;20049;-73
2022/07/16 10:02:33;;;;;;;5.25;0.80;;;17.50;99.90;;;;;;5044762;28;20045;-73
2022/07/16 10:05:00;;;;;;;7.43;0.60;;;17.80;99.90;;;;;;5046440;28;20043;-73
2022/07/16 10:07:25;;;;;;;5.97;0.77;;;17.90;99.90;;;;;;5029006;28;20044;-71
2022/07/16 10:09:51;;;;;;;4.35;0.80;;;17.70;99.90;;;;;;5045718;28;20071;-74
2022/07/16 10:12:20;;;;;;;4.78;0.52;;;17.80;99.90;;;;;;5043586;28;20194;-75
2022/07/16 10:14:48;;;;;;;4.72;0.73;;;17.80;99.90;;;;;;5047165;28;20033;-75
2022/07/16 10:17:18;;;;;;;5.53;0.90;;;17.70;99.90;;;;;;5030648;28;20059;-74
2022/07/16 10:19:44;;;;;;;3.35;0.57;;;17.50;99.90;;;;;;5045795;28;20057;-73
2022/07/16 10:22:14;;;;;;;2.60;0.30;;;17.60;99.90;;;;;;5037600;28;20045;-74
2022/07/16 10:24:54;;;;;;;6.43;0.90;;;17.70;99.90;;;;;;5032108;28;20049;-74
2022/07/16 10:27:25;;;;;;;2.88;0.50;;;17.50;99.90;;;;;;5019847;28;20107;-73
2022/07/16 10:30:09;;;;;;;4.35;0.80;;;17.60;99.90;;;;;;5037693;28;20056;-74
2022/07/16 10:33:12;;;;;;;2.97;0.57;;;17.70;99.90;;;;;;5041745;28;20485;-74
2022/07/16 10:35:47;;;;;;;4.40;0.60;;;17.70;99.90;;;;;;5034312;28;20575;-74
2022/07/16 10:38:27;;;;;;;4.20;0.57;;;18.00;99.90;;;;;;5019077;28;20051;-73
2022/07/16 10:41:08;;;;;;;3.72;0.90;;;18.10;99.90;;;;;;5036991;28;20462;-75
2022/07/16 10:43:34;;;;;;;5.78;0.70;;;18.20;99.90;;;;;;5033492;28;20045;-75
2022/07/16 10:46:03;;;;;;;3.42;0.50;;;18.10;99.90;;;;;;5037009;28;20041;-75
2022/07/16 10:48:49;;;;;;;4.65;0.82;;;18.20;99.90;;;;;;5017508;28;20045;-74
2022/07/16 10:51:23;;;;;;;3.80;0.82;;;18.10;99.90;;;;;;5038308;28;20588;-75
2022/07/16 10:53:58;;;;;;;6.03;0.90;;;18.10;99.90;;;;;;5036824;28;20500;-74
2022/07/16 10:56:39;;;;;;;8.40;1.20;;;18.10;99.90;;;;;;5020611;28;20106;-74
2022/07/16 10:59:07;;;;;;;4.57;0.70;;;18.00;99.90;;;;;;5032536;28;20049;-74
2022/07/16 11:01:37;;;;;;;7.30;0.95;;;18.00;99.90;;;;;;5041012;28;20041;-75
2022/07/16 11:04:04;;;;;;;7.00;0.80;;;17.90;99.90;;;;;;5049011;28;20055;-75
2022/07/16 11:06:30;;;;;;;5.18;0.88;;;18.00;99.90;;;;;;5020558;28;20126;-73
2022/07/16 11:08:58;;;;;;;3.78;0.85;;;17.90;99.90;;;;;;5041225;28;20084;-75
2022/07/16 11:11:38;;;;;;;5.85;1.10;;;18.10;99.90;;;;;;5037377;28;20518;-75
2022/07/16 11:14:04;;;;;;;4.43;0.73;;;18.10;99.90;;;;;;5040565;28;20545;-74
2022/07/16 11:16:30;;;;;;;4.80;0.77;;;17.90;99.90;;;;;;5021059;28;20219;-76
2022/07/16 11:19:00;;;;;;;4.75;1.00;;;18.10;99.90;;;;;;5027337;28;20073;-74
2022/07/16 11:21:27;;;;;;;8.80;0.88;;;18.10;99.90;;;;;;5031266;28;20128;-74
2022/07/16 11:24:00;;;;;;;4.32;0.80;;;18.10;99.90;;;;;;5028447;28;20045;-74
2022/07/16 11:26:28;;;;;;;5.03;1.00;;;18.20;99.90;;;;;;5016555;28;20260;-77
2022/07/16 11:28:56;;;;;;;5.45;0.90;;;18.00;99.90;;;;;;5036205;28;20057;-74
2022/07/16 11:31:27;;;;;;;7.90;1.00;;;17.80;99.90;;;;;;5049436;28;20080;-75
2022/07/16 11:33:59;;;;;;;4.45;0.90;;;17.50;99.90;;;;;;5047710;28;20049;-73
2022/07/16 11:36:27;;;;;;;5.43;1.05;;;17.80;99.90;;;;;;5029650;28;20493;-74
2022/07/16 11:38:57;;;;;;;8.00;0.98;;;17.70;99.90;;;;;;5026679;28;20045;-72
2022/07/16 11:41:22;;;;;;;4.85;0.85;;;17.50;99.90;;;;;;5029595;28;20076;-74
2022/07/16 11:43:48;;;;;;;6.05;0.90;;;17.60;99.90;;;;;;5042773;28;20141;-75
2022/07/16 11:46:32;;;;;;;3.97;1.15;;;17.70;99.90;;;;;;5036076;28;20045;-75
2022/07/16 11:48:58;;;;;;;4.95;0.68;;;18.10;99.90;;;;;;5033148;28;20050;-72
2022/07/16 11:51:25;;;;;;;5.25;0.88;;;18.20;99.90;;;;;;5029447;28;20558;-75
2022/07/16 11:53:54;;;;;;;6.18;0.70;;;18.20;99.90;;;;;;5028857;28;20038;-76
2022/07/16 11:56:32;;;;;;;6.68;0.70;;;18.30;99.90;;;;;;5019220;28;20045;-75
2022/07/16 11:58:57;;;;;;;5.22;0.90;;;18.40;99.90;;;;;;5027291;28;20048;-74
2022/07/16 12:01:24;;;;;;;4.28;1.00;;;18.50;99.90;;;;;;5029437;28;20046;-73
2022/07/16 12:03:56;;;;;;;6.25;0.90;;;18.60;99.90;;;;;;5044022;28;20098;-75
2022/07/16 12:06:22;;;;;;;5.75;0.90;;;18.50;99.90;;;;;;5029244;28;20411;-76
2022/07/16 12:08:55;;;;;;;5.10;0.75;;;18.30;99.90;;;;;;5035353;28;20040;-73
2022/07/16 12:11:29;;;;;;;5.00;0.80;;;18.00;99.90;;;;;;5048836;28;20045;-73
2022/07/16 12:13:55;;;;;;;4.70;1.00;;;18.00;99.90;;;;;;5042516;28;20076;-75
2022/07/16 12:16:21;;;;;;;4.10;0.73;;;18.00;99.90;;;;;;5033964;28;20072;-74
2022/07/16 12:19:12;;;;;;;3.58;0.82;;;18.30;99.90;;;;;;5034826;28;20541;-73
2022/07/16 12:21:39;;;;;;;12.40;1.08;;;18.40;99.90;;;;;;5042957;28;20552;-74
2022/07/16 12:24:06;;;;;;;5.78;1.10;;;18.20;99.90;;;;;;5058568;28;20055;-77
2022/07/16 12:26:40;;;;;;;5.20;0.75;;;18.20;99.90;;;;;;5024766;28;20045;-75
2022/07/16 12:29:08;;;;;;;10.15;1.20;;;18.60;99.90;;;;;;5039016;28;20041;-73
2022/07/16 12:31:35;;;;;;;5.45;0.90;;;18.70;99.90;;;;;;5051929;28;20057;-78
2022/07/16 12:34:03;;;;;;;6.47;0.98;;;18.40;99.90;;;;;;5037448;28;20049;-76
2022/07/16 12:36:33;;;;;;;7.10;0.80;;;18.40;99.90;;;;;;5019216;28;20910;-75
2022/07/16 12:39:07;;;;;;;6.30;0.90;;;18.20;99.90;;;;;;5029657;28;20041;-77
2022/07/16 12:41:36;;;;;;;2.95;0.60;;;18.10;99.90;;;;;;5032361;28;20109;-73
2022/07/16 12:44:05;;;;;;;6.88;0.60;;;18.20;99.90;;;;;;5047719;28;20053;-74
2022/07/16 12:46:44;;;;;;;3.80;0.80;;;18.00;99.90;;;;;;5027062;28;20045;-75
2022/07/16 12:49:15;;;;;;;6.78;1.08;;;18.10;99.90;;;;;;5030213;28;20048;-74
2022/07/16 12:51:44;;;;;;;2.55;0.60;;;18.20;99.90;;;;;;5032536;28;20045;-77
2022/07/16 12:54:12;;;;;;;4.18;0.60;;;18.30;99.90;;;;;;5046388;28;20049;-76
2022/07/16 12:59:23;;;;;;;4.32;0.60;;;18.40;99.90;;;;;;5050713;28;20403;-78